sensor_id;sensor_type;location;lat;lon;timestamp;pressure;altitude;pressure_sealevel;temperature;humidity
47054;BME280;32811;52.382;5.270;2023-02-10T00:01:32;103579.06;;;-1.12;100.00
47054;BME280;32811;52.382;5.270;2023-02-10T00:03:58;103581.59;;;-1.12;100.00
47054;BME280;32811;52.382;5.270;2023-02-10T00:06:26;103606.03;;;-0.95;100.00
47054;BME280;32811;52.382;5.270;2023-02-10T00:08:58;103583.84;;;-1.07;100.00
47054;BME280;32811;52.382;5.270;2023-02-10T00:11:26;103577.91;;;-1.07;100.00
47054;BME280;32811;52.382;5.270;2023-02-10T00:14:14;103607.53;;;-0.97;100.00
47054;BME280;32811;52.382;5.270;2023-02-10T00:16:41;103583.09;;;-1.14;100.00
47054;BME280;32811;52.382;5.270;2023-02-10T00:19:08;103582.81;;;-1.17;100.00
47054;BME280;32811;52.382;5.270;2023-02-10T00:21:35;103589.38;;;-1.11;100.00
47054;BME280;32811;52.382;5.270;2023-02-10T00:24:02;103616.03;;;-0.97;100.00
47054;BME280;32811;52.382;5.270;2023-02-10T00:26:29;103587.56;;;-1.12;100.00
47054;BME280;32811;52.382;5.270;2023-02-10T00:28:56;103577.41;;;-1.12;100.00
47054;BME280;32811;52.382;5.270;2023-02-10T00:31:22;103593.53;;;-1.02;100.00
47054;BME280;32811;52.382;5.270;2023-02-10T00:33:49;103589.38;;;-1.11;100.00
47054;BME280;32811;52.382;5.270;2023-02-10T00:36:16;103605.88;;;-0.97;100.00
47054;BME280;32811;52.382;5.270;2023-02-10T00:38:43;103592.19;;;-1.08;100.00
47054;BME280;32811;52.382;5.270;2023-02-10T00:41:12;103592.78;;;-1.10;100.00
47054;BME280;32811;52.382;5.270;2023-02-10T00:43:39;103593.53;;;-1.02;100.00
47054;BME280;32811;52.382;5.270;2023-02-10T00:46:06;103611.84;;;-0.96;100.00
47054;BME280;32811;52.382;5.270;2023-02-10T00:48:33;103563.28;;;-1.18;100.00
47054;BME280;32811;52.382;5.270;2023-02-10T00:50:59;103578.47;;;-1.10;100.00
47054;BME280;32811;52.382;5.270;2023-02-10T00:53:26;103584.91;;;-1.05;100.00
47054;BME280;32811;52.382;5.270;2023-02-10T00:55:53;103579.38;;;-1.09;100.00
47054;BME280;32811;52.382;5.270;2023-02-10T00:58:22;103607.53;;;-1.06;100.00
47054;BME280;32811;52.382;5.270;2023-02-10T01:00:49;103601.59;;;-1.07;100.00
47054;BME280;32811;52.382;5.270;2023-02-10T01:03:16;103609.19;;;-1.07;100.00
47054;BME280;32811;52.382;5.270;2023-02-10T01:05:43;103577.31;;;-1.22;100.00
47054;BME280;32811;52.382;5.270;2023-02-10T01:08:12;103601.44;;;-1.17;100.00
47054;BME280;32811;52.382;5.270;2023-02-10T01:10:39;103565.09;;;-1.43;100.00
47054;BME280;32811;52.382;5.270;2023-02-10T01:13:08;103624.09;;;-1.10;100.00
47054;BME280;32811;52.382;5.270;2023-02-10T01:15:35;103622.31;;;-1.11;100.00
47054;BME280;32811;52.382;5.270;2023-02-10T01:18:01;103607.72;;;-1.31;100.00
47054;BME280;32811;52.382;5.270;2023-02-10T01:20:28;103607.44;;;-1.34;100.00
47054;BME280;32811;52.382;5.270;2023-02-10T01:22:55;103624.41;;;-1.24;100.00
47054;BME280;32811;52.382;5.270;2023-02-10T01:25:21;103628.59;;;-1.16;100.00
47054;BME280;32811;52.382;5.270;2023-02-10T01:27:48;103600.38;;;-1.36;100.00
47054;BME280;32811;52.382;5.270;2023-02-10T01:30:14;103640.22;;;-1.09;100.00
47054;BME280;32811;52.382;5.270;2023-02-10T01:32:41;103615.03;;;-1.25;100.00
47054;BME280;32811;52.382;5.270;2023-02-10T01:35:08;103641.53;;;-1.13;100.00
47054;BME280;32811;52.382;5.270;2023-02-10T01:37:34;103648.38;;;-1.12;100.00
47054;BME280;32811;52.382;5.270;2023-02-10T01:40:04;103634.22;;;-1.18;100.00
47054;BME280;32811;52.382;5.270;2023-02-10T01:42:31;103618.13;;;-1.28;100.00
47054;BME280;32811;52.382;5.270;2023-02-10T01:45:13;103638.25;;;-1.12;100.00
47054;BME280;32811;52.382;5.270;2023-02-10T01:47:42;103645.56;;;-1.06;100.00
47054;BME280;32811;52.382;5.270;2023-02-10T01:50:09;103649.59;;;-1.08;100.00
47054;BME280;32811;52.382;5.270;2023-02-10T01:52:35;103639.63;;;-1.15;100.00
47054;BME280;32811;52.382;5.270;2023-02-10T01:55:08;103643.31;;;-1.12;100.00
47054;BME280;32811;52.382;5.270;2023-02-10T01:57:37;103635.44;;;-1.15;100.00
47054;BME280;32811;52.382;5.270;2023-02-10T02:00:06;103639.78;;;-1.14;100.00
47054;BME280;32811;52.382;5.270;2023-02-10T02:02:33;103636.75;;;-1.10;100.00
47054;BME280;32811;52.382;5.270;2023-02-10T02:05:05;103619.50;;;-1.14;100.00
47054;BME280;32811;52.382;5.270;2023-02-10T02:07:33;103651.25;;;-1.00;100.00
47054;BME280;32811;52.382;5.270;2023-02-10T02:10:04;103650.34;;;-1.00;100.00
47054;BME280;32811;52.382;5.270;2023-02-10T02:12:53;103652.72;;;-1.02;100.00
47054;BME280;32811;52.382;5.270;2023-02-10T02:15:51;103653.34;;;-1.05;100.00
47054;BME280;32811;52.382;5.270;2023-02-10T02:18:45;103630.66;;;-1.12;100.00
47054;BME280;32811;52.382;5.270;2023-02-10T02:24:41;103621.88;;;-1.15;100.00
47054;BME280;32811;52.382;5.270;2023-02-10T02:33:04;103651.69;;;-1.13;100.00
47054;BME280;32811;52.382;5.270;2023-02-10T02:35:43;103639.91;;;-1.12;100.00
47054;BME280;32811;52.382;5.270;2023-02-10T02:38:11;103649.16;;;-1.13;100.00
47054;BME280;32811;52.382;5.270;2023-02-10T02:40:38;103646.78;;;-1.11;100.00
47054;BME280;32811;52.382;5.270;2023-02-10T02:43:05;103650.47;;;-1.08;100.00
47054;BME280;32811;52.382;5.270;2023-02-10T02:45:42;103653.78;;;-1.09;100.00
47054;BME280;32811;52.382;5.270;2023-02-10T03:01:59;103631.56;;;-1.20;100.00
47054;BME280;32811;52.382;5.270;2023-02-10T03:04:31;103643.19;;;-1.13;100.00
47054;BME280;32811;52.382;5.270;2023-02-10T03:06:58;103642.88;;;-1.16;100.00
47054;BME280;32811;52.382;5.270;2023-02-10T03:09:25;103633.34;;;-1.19;100.00
47054;BME280;32811;52.382;5.270;2023-02-10T03:11:52;103647.66;;;-1.11;100.00
47054;BME280;32811;52.382;5.270;2023-02-10T03:14:19;103647.94;;;-1.08;100.00
47054;BME280;32811;52.382;5.270;2023-02-10T03:16:46;103637.06;;;-1.15;100.00
47054;BME280;32811;52.382;5.270;2023-02-10T03:19:13;103643.63;;;-1.09;100.00
47054;BME280;32811;52.382;5.270;2023-02-10T03:21:39;103628.88;;;-1.21;100.00
47054;BME280;32811;52.382;5.270;2023-02-10T03:24:06;103638.72;;;-1.16;100.00
47054;BME280;32811;52.382;5.270;2023-02-10T03:26:36;103629.75;;;-1.21;100.00
47054;BME280;32811;52.382;5.270;2023-02-10T03:29:04;103640.22;;;-1.18;100.00
47054;BME280;32811;52.382;5.270;2023-02-10T03:31:31;103643.47;;;-1.19;100.00
47054;BME280;32811;52.382;5.270;2023-02-10T03:33:58;103646.44;;;-1.23;100.00
47054;BME280;32811;52.382;5.270;2023-02-10T03:36:25;103643.34;;;-1.20;100.00
47054;BME280;32811;52.382;5.270;2023-02-10T03:38:51;103654.66;;;-1.17;100.00
47054;BME280;32811;52.382;5.270;2023-02-10T03:41:18;103648.84;;;-1.16;100.00
47054;BME280;32811;52.382;5.270;2023-02-10T03:43:44;103643.47;;;-1.19;100.00
47054;BME280;32811;52.382;5.270;2023-02-10T03:46:11;103643.47;;;-1.19;100.00
47054;BME280;32811;52.382;5.270;2023-02-10T03:48:38;103643.78;;;-1.16;100.00
47054;BME280;32811;52.382;5.270;2023-02-10T03:51:06;103647.38;;;-1.14;100.00
47054;BME280;32811;52.382;5.270;2023-02-10T03:53:33;103653.34;;;-1.05;100.00
47054;BME280;32811;52.382;5.270;2023-02-10T03:56:00;103647.66;;;-1.11;100.00
47054;BME280;32811;52.382;5.270;2023-02-10T03:58:27;103641.84;;;-1.10;100.00
47054;BME280;32811;52.382;5.270;2023-02-10T04:00:53;103652.28;;;-1.07;100.00
47054;BME280;32811;52.382;5.270;2023-02-10T04:03:20;103654.81;;;-1.07;100.00
47054;BME280;32811;52.382;5.270;2023-02-10T04:05:47;103649.31;;;-1.11;100.00
47054;BME280;32811;52.382;5.270;2023-02-10T04:08:15;103639.16;;;-1.29;100.00
47054;BME280;32811;52.382;5.270;2023-02-10T04:10:42;103662.59;;;-1.14;100.00
47054;BME280;32811;52.382;5.270;2023-02-10T04:13:09;103669.41;;;-1.13;100.00
47054;BME280;32811;52.382;5.270;2023-02-10T04:15:35;103672.41;;;-1.08;100.00
47054;BME280;32811;52.382;5.270;2023-02-10T04:18:02;103666.13;;;-1.12;100.00
47054;BME280;32811;52.382;5.270;2023-02-10T04:20:29;103662.59;;;-1.14;100.00
47054;BME280;32811;52.382;5.270;2023-02-10T04:22:55;103673.88;;;-1.10;100.00
47054;BME280;32811;52.382;5.270;2023-02-10T04:25:22;103667.66;;;-1.14;100.00
47054;BME280;32811;52.382;5.270;2023-02-10T04:27:48;103664.78;;;-1.17;100.00
47054;BME280;32811;52.382;5.270;2023-02-10T04:30:15;103666.28;;;-1.10;100.00
47054;BME280;32811;52.382;5.270;2023-02-10T04:32:42;103673.16;;;-1.09;100.00
47054;BME280;32811;52.382;5.270;2023-02-10T04:35:08;103665.25;;;-1.12;100.00
47054;BME280;32811;52.382;5.270;2023-02-10T04:37:35;103671.78;;;-1.14;100.00
47054;BME280;32811;52.382;5.270;2023-02-10T04:40:02;103653.59;;;-1.19;100.00
47054;BME280;32811;52.382;5.270;2023-02-10T04:42:29;103657.63;;;-1.12;100.00
47054;BME280;32811;52.382;5.270;2023-02-10T04:44:59;103649.16;;;-1.13;100.00
47054;BME280;32811;52.382;5.270;2023-02-10T04:47:27;103643.47;;;-1.10;100.00
47054;BME280;32811;52.382;5.270;2023-02-10T04:49:54;103649.75;;;-1.07;100.00
47054;BME280;32811;52.382;5.270;2023-02-10T04:52:21;103639.00;;;-1.13;100.00
47054;BME280;32811;52.382;5.270;2023-02-10T04:54:48;103652.13;;;-0.99;100.00
47054;BME280;32811;52.382;5.270;2023-02-10T04:57:17;103658.69;;;-0.93;100.00
47054;BME280;32811;52.382;5.270;2023-02-10T04:59:44;103658.69;;;-0.84;100.00
47054;BME280;32811;52.382;5.270;2023-02-10T05:02:10;103656.59;;;-0.88;100.00
47054;BME280;32811;52.382;5.270;2023-02-10T05:04:37;103656.59;;;-0.79;100.00
47054;BME280;32811;52.382;5.270;2023-02-10T05:07:04;103650.03;;;-0.86;100.00
47054;BME280;32811;52.382;5.270;2023-02-10T05:09:30;103654.66;;;-0.82;100.00
47054;BME280;32811;52.382;5.270;2023-02-10T05:11:57;103661.22;;;-0.75;100.00
47054;BME280;32811;52.382;5.270;2023-02-10T05:14:24;103652.56;;;-0.77;100.00
47054;BME280;32811;52.382;5.270;2023-02-10T05:16:50;103646.00;;;-0.75;100.00
47054;BME280;32811;52.382;5.270;2023-02-10T05:19:17;103659.56;;;-0.75;100.00
47054;BME280;32811;52.382;5.270;2023-02-10T05:21:44;103656.59;;;-0.79;100.00
47054;BME280;32811;52.382;5.270;2023-02-10T05:24:10;103653.75;;;-0.82;100.00
47054;BME280;32811;52.382;5.270;2023-02-10T05:26:37;103650.19;;;-0.85;100.00
47054;BME280;32811;52.382;5.270;2023-02-10T05:29:04;103652.56;;;-0.77;100.00
47054;BME280;32811;52.382;5.270;2023-02-10T05:31:30;103652.09;;;-0.73;100.00
47054;BME280;32811;52.382;5.270;2023-02-10T05:33:59;103654.13;;;-0.60;100.00
47054;BME280;32811;52.382;5.270;2023-02-10T05:36:26;103658.03;;;-0.55;100.00
47054;BME280;32811;52.382;5.270;2023-02-10T05:38:53;103652.66;;;-0.58;100.00
47054;BME280;32811;52.382;5.270;2023-02-10T05:41:47;103666.38;;;-0.56;100.00
47054;BME280;32811;52.382;5.270;2023-02-10T05:44:17;103662.06;;;-0.57;100.00
47054;BME280;32811;52.382;5.270;2023-02-10T05:47:02;103604.41;;;-0.95;100.00
47054;BME280;32811;52.382;5.270;2023-02-10T05:49:33;103642.56;;;-0.76;100.00
47054;BME280;32811;52.382;5.270;2023-02-10T05:52:23;103626.44;;;-0.85;100.00
47054;BME280;32811;52.382;5.270;2023-02-10T05:55:14;103639.88;;;-0.86;100.00
47054;BME280;32811;52.382;5.270;2023-02-10T05:57:52;103633.00;;;-0.87;100.00
47054;BME280;32811;52.382;5.270;2023-02-10T06:00:42;103640.63;;;-0.87;100.00
47054;BME280;32811;52.382;5.270;2023-02-10T06:03:11;103632.59;;;-1.00;100.00
47054;BME280;32811;52.382;5.270;2023-02-10T06:05:50;103623.34;;;-1.09;100.00
47054;BME280;32811;52.382;5.270;2023-02-10T06:08:18;103617.97;;;-1.12;100.00
47054;BME280;32811;52.382;5.270;2023-02-10T06:11:26;103624.41;;;-1.07;100.00
47054;BME280;32811;52.382;5.270;2023-02-10T06:14:00;103612.47;;;-1.08;100.00
47054;BME280;32811;52.382;5.270;2023-02-10T06:16:29;103669.41;;;-0.78;100.00
47054;BME280;32811;52.382;5.270;2023-02-10T06:19:17;103659.28;;;-0.87;100.00
47054;BME280;32811;52.382;5.270;2023-02-10T06:21:52;103620.50;;;-1.03;100.00
47054;BME280;32811;52.382;5.270;2023-02-10T06:24:24;103680.00;;;-0.65;100.00
47054;BME280;32811;52.382;5.270;2023-02-10T06:27:54;103669.53;;;-0.76;100.00
47054;BME280;32811;52.382;5.270;2023-02-10T06:30:34;103622.00;;;-1.05;100.00
47054;BME280;32811;52.382;5.270;2023-02-10T06:33:19;103636.63;;;-0.94;100.00
47054;BME280;32811;52.382;5.270;2023-02-10T06:35:57;103651.53;;;-0.88;100.00
47054;BME280;32811;52.382;5.270;2023-02-10T06:38:41;103642.09;;;-0.80;100.00
47054;BME280;32811;52.382;5.270;2023-02-10T06:41:12;103632.72;;;-0.90;100.00
47054;BME280;32811;52.382;5.270;2023-02-10T06:43:41;103666.72;;;-0.71;100.00
47054;BME280;32811;52.382;5.270;2023-02-10T06:46:21;103660.59;;;-0.81;100.00
47054;BME280;32811;52.382;5.270;2023-02-10T06:49:23;103671.47;;;-0.74;100.00
47054;BME280;32811;52.382;5.270;2023-02-10T06:52:13;103667.44;;;-0.72;100.00
47054;BME280;32811;52.382;5.270;2023-02-10T06:54:42;103657.63;;;-0.69;100.00
47054;BME280;32811;52.382;5.270;2023-02-10T06:57:09;103682.47;;;-0.56;100.00
47054;BME280;32811;52.382;5.270;2023-02-10T06:59:42;103626.75;;;-0.82;100.00
47054;BME280;32811;52.382;5.270;2023-02-10T07:02:11;103626.59;;;-0.84;100.00
47054;BME280;32811;52.382;5.270;2023-02-10T07:04:46;103685.94;;;-0.47;100.00
47054;BME280;32811;52.382;5.270;2023-02-10T07:07:16;103640.16;;;-0.74;100.00
47054;BME280;32811;52.382;5.270;2023-02-10T07:09:44;103638.50;;;-0.74;100.00
47054;BME280;32811;52.382;5.270;2023-02-10T07:12:11;103635.41;;;-0.71;100.00
47054;BME280;32811;52.382;5.270;2023-02-10T07:14:38;103639.25;;;-0.66;100.00
47054;BME280;32811;52.382;5.270;2023-02-10T07:17:07;103652.66;;;-0.58;100.00
47054;BME280;32811;52.382;5.270;2023-02-10T07:19:34;103643.97;;;-0.52;100.00
47054;BME280;32811;52.382;5.270;2023-02-10T07:22:01;103655.03;;;-0.51;100.00
47054;BME280;32811;52.382;5.270;2023-02-10T07:24:38;103675.44;;;-0.41;100.00
47054;BME280;32811;52.382;5.270;2023-02-10T07:27:16;103702.97;;;-0.18;100.00
47054;BME280;32811;52.382;5.270;2023-02-10T07:29:54;103677.34;;;-0.30;100.00
47054;BME280;32811;52.382;5.270;2023-02-10T07:32:24;103675.25;;;-0.34;100.00
47054;BME280;32811;52.382;5.270;2023-02-10T07:34:55;103667.06;;;-0.31;100.00
47054;BME280;32811;52.382;5.270;2023-02-10T07:37:41;103704.59;;;-0.01;100.00
47054;BME280;32811;52.382;5.270;2023-02-10T07:40:23;103714.56;;;0.06;100.00
47054;BME280;32811;52.382;5.270;2023-02-10T07:42:58;103690.38;;;0.01;100.00
47054;BME280;32811;52.382;5.270;2023-02-10T07:45:39;103684.41;;;0.01;100.00
47054;BME280;32811;52.382;5.270;2023-02-10T07:48:08;103660.38;;;-0.03;100.00
47054;BME280;32811;52.382;5.270;2023-02-10T07:50:54;103657.53;;;0.03;100.00
47054;BME280;32811;52.382;5.270;2023-02-10T07:53:21;103712.63;;;0.31;100.00
47054;BME280;32811;52.382;5.270;2023-02-10T07:56:03;103688.50;;;0.17;100.00
47054;BME280;32811;52.382;5.270;2023-02-10T07:58:37;103665.22;;;0.13;100.00
47054;BME280;32811;52.382;5.270;2023-02-10T08:01:09;103673.38;;;0.28;100.00
47054;BME280;32811;52.382;5.270;2023-02-10T08:03:37;103671.69;;;0.37;100.00
47054;BME280;32811;52.382;5.270;2023-02-10T08:06:04;103690.94;;;0.62;100.00
47054;BME280;32811;52.382;5.270;2023-02-10T08:08:32;103684.63;;;0.68;100.00
47054;BME280;32811;52.382;5.270;2023-02-10T08:10:58;103689.25;;;0.72;100.00
47054;BME280;32811;52.382;5.270;2023-02-10T08:13:25;103700.09;;;0.79;100.00
47054;BME280;32811;52.382;5.270;2023-02-10T08:15:53;103718.66;;;0.97;100.00
47054;BME280;32811;52.382;5.270;2023-02-10T08:18:20;103728.16;;;1.09;100.00
47054;BME280;32811;52.382;5.270;2023-02-10T08:20:47;103706.72;;;0.96;100.00
47054;BME280;32811;52.382;5.270;2023-02-10T08:23:16;103720.50;;;1.09;100.00
47054;BME280;32811;52.382;5.270;2023-02-10T08:25:43;103700.63;;;1.04;100.00
47054;BME280;32811;52.382;5.270;2023-02-10T08:28:10;103714.53;;;1.08;100.00
47054;BME280;32811;52.382;5.270;2023-02-10T08:30:36;103725.59;;;1.09;100.00
47054;BME280;32811;52.382;5.270;2023-02-10T08:33:03;103722.03;;;1.07;100.00
47054;BME280;32811;52.382;5.270;2023-02-10T08:35:30;103718.81;;;0.99;100.00
47054;BME280;32811;52.382;5.270;2023-02-10T08:37:56;103714.66;;;0.91;100.00
47054;BME280;32811;52.382;5.270;2023-02-10T08:40:23;103716.13;;;0.97;100.00
47054;BME280;32811;52.382;5.270;2023-02-10T08:42:50;103709.53;;;0.99;100.00
47054;BME280;32811;52.382;5.270;2023-02-10T08:45:18;103716.81;;;1.05;100.00
47054;BME280;32811;52.382;5.270;2023-02-10T08:47:45;103684.00;;;0.89;100.00
47054;BME280;32811;52.382;5.270;2023-02-10T08:50:12;103701.66;;;1.07;100.00
47054;BME280;32811;52.382;5.270;2023-02-10T08:52:39;103719.47;;;1.26;100.00
47054;BME280;32811;52.382;5.270;2023-02-10T08:55:08;103704.84;;;1.23;100.00
47054;BME280;32811;52.382;5.270;2023-02-10T08:57:34;103714.44;;;1.36;100.00
47054;BME280;32811;52.382;5.270;2023-02-10T09:00:06;103731.19;;;1.53;100.00
47054;BME280;32811;52.382;5.270;2023-02-10T09:02:33;103742.81;;;1.59;100.00
47054;BME280;32811;52.382;5.270;2023-02-10T09:05:00;103704.56;;;1.49;100.00
47054;BME280;32811;52.382;5.270;2023-02-10T09:07:35;103717.63;;;1.62;100.00
47054;BME280;32811;52.382;5.270;2023-02-10T09:10:02;103726.97;;;1.72;100.00
47054;BME280;32811;52.382;5.270;2023-02-10T09:12:29;103727.06;;;1.74;100.00
47054;BME280;32811;52.382;5.270;2023-02-10T09:14:59;103697.53;;;1.65;100.00
47054;BME280;32811;52.382;5.270;2023-02-10T09:17:25;103714.00;;;1.90;100.00
47054;BME280;32811;52.382;5.270;2023-02-10T09:19:55;103680.06;;;1.99;100.00
47054;BME280;32811;52.382;5.270;2023-02-10T09:22:21;103692.44;;;2.15;100.00
47054;BME280;32811;52.382;5.270;2023-02-10T09:24:49;103720.47;;;2.25;100.00
47054;BME280;32811;52.382;5.270;2023-02-10T09:27:19;103713.56;;;2.14;100.00
47054;BME280;32811;52.382;5.270;2023-02-10T09:29:45;103723.75;;;2.14;100.00
47054;BME280;32811;52.382;5.270;2023-02-10T09:32:12;103716.25;;;2.05;100.00
47054;BME280;32811;52.382;5.270;2023-02-10T09:34:39;103732.13;;;2.03;100.00
47054;BME280;32811;52.382;5.270;2023-02-10T09:37:06;103712.53;;;2.02;100.00
47054;BME280;32811;52.382;5.270;2023-02-10T09:39:33;103717.28;;;2.18;100.00
47054;BME280;32811;52.382;5.270;2023-02-10T09:45:10;103714.63;;;2.26;100.00
47054;BME280;32811;52.382;5.270;2023-02-10T09:47:48;103728.28;;;2.37;100.00
47054;BME280;32811;52.382;5.270;2023-02-10T09:50:26;103732.59;;;2.38;100.00
47054;BME280;32811;52.382;5.270;2023-02-10T09:53:16;103728.53;;;2.40;100.00
47054;BME280;32811;52.382;5.270;2023-02-10T09:55:50;103724.31;;;2.51;100.00
47054;BME280;32811;52.382;5.270;2023-02-10T10:01:34;103714.75;;;2.59;100.00
47054;BME280;32811;52.382;5.270;2023-02-10T10:03:56;103714.41;;;2.75;100.00
47054;BME280;32811;52.382;5.270;2023-02-10T10:11:38;103717.41;;;3.01;100.00
47054;BME280;32811;52.382;5.270;2023-02-10T10:19:55;103716.38;;;3.09;100.00
47054;BME280;32811;52.382;5.270;2023-02-10T10:31:03;103729.56;;;3.46;100.00
47054;BME280;32811;52.382;5.270;2023-02-10T10:33:38;103726.00;;;3.44;100.00
47054;BME280;32811;52.382;5.270;2023-02-10T10:36:19;103686.84;;;3.33;100.00
47054;BME280;32811;52.382;5.270;2023-02-10T10:38:55;103726.84;;;3.55;100.00
47054;BME280;32811;52.382;5.270;2023-02-10T10:41:30;103703.81;;;3.65;100.00
47054;BME280;32811;52.382;5.270;2023-02-10T10:43:58;103715.53;;;3.73;100.00
47054;BME280;32811;52.382;5.270;2023-02-10T10:46:33;103653.84;;;3.47;100.00
47054;BME280;32811;52.382;5.270;2023-02-10T10:49:04;103708.72;;;3.84;100.00
47054;BME280;32811;52.382;5.270;2023-02-10T10:51:31;103703.19;;;3.90;100.00
47054;BME280;32811;52.382;5.270;2023-02-10T10:54:01;103695.69;;;3.81;100.00
47054;BME280;32811;52.382;5.270;2023-02-10T11:01:42;103694.69;;;4.01;100.00
47054;BME280;32811;52.382;5.270;2023-02-10T11:04:22;103700.63;;;4.12;100.00
47054;BME280;32811;52.382;5.270;2023-02-10T11:06:55;103712.78;;;4.26;100.00
47054;BME280;32811;52.382;5.270;2023-02-10T11:09:32;103701.25;;;4.31;100.00
47054;BME280;32811;52.382;5.270;2023-02-10T11:12:15;103694.28;;;4.41;100.00
47054;BME280;32811;52.382;5.270;2023-02-10T11:14:47;103701.66;;;4.60;100.00
47054;BME280;32811;52.382;5.270;2023-02-10T11:17:24;103687.91;;;4.69;100.00
47054;BME280;32811;52.382;5.270;2023-02-10T11:19:59;103687.56;;;4.76;100.00
47054;BME280;32811;52.382;5.270;2023-02-10T11:22:26;103687.13;;;4.82;100.00
47054;BME280;32811;52.382;5.270;2023-02-10T11:24:59;103654.22;;;4.87;100.00
47054;BME280;32811;52.382;5.270;2023-02-10T11:27:26;103662.44;;;5.06;100.00
47054;BME280;32811;52.382;5.270;2023-02-10T11:29:57;103637.97;;;4.98;100.00
47054;BME280;32811;52.382;5.270;2023-02-10T11:34:53;103666.75;;;5.31;100.00
47054;BME280;32811;52.382;5.270;2023-02-10T11:37:28;103666.19;;;5.35;100.00
47054;BME280;32811;52.382;5.270;2023-02-10T11:39:57;103663.97;;;5.39;100.00
47054;BME280;32811;52.382;5.270;2023-02-10T11:42:28;103676.53;;;5.48;100.00
47054;BME280;32811;52.382;5.270;2023-02-10T11:45:02;103658.81;;;5.51;100.00
47054;BME280;32811;52.382;5.270;2023-02-10T11:47:31;103653.47;;;5.48;100.00
47054;BME280;32811;52.382;5.270;2023-02-10T11:49:58;103659.38;;;5.59;100.00
47054;BME280;32811;52.382;5.270;2023-02-10T11:52:27;103654.69;;;5.65;100.00
47054;BME280;32811;52.382;5.270;2023-02-10T11:54:56;103665.44;;;5.73;100.00
47054;BME280;32811;52.382;5.270;2023-02-10T11:57:44;103669.66;;;5.84;100.00
47054;BME280;32811;52.382;5.270;2023-02-10T12:00:38;103666.84;;;5.93;100.00
47054;BME280;32811;52.382;5.270;2023-02-10T13:03:49;103550.13;;;5.98;100.00
47054;BME280;32811;52.382;5.270;2023-02-10T13:15:11;103518.53;;;5.86;100.00
47054;BME280;32811;52.382;5.270;2023-02-10T13:33:18;103575.94;;;6.26;100.00
47054;BME280;32811;52.382;5.270;2023-02-10T13:37:05;103513.88;;;6.05;100.00
47054;BME280;32811;52.382;5.270;2023-02-10T13:40:13;103513.19;;;6.08;100.00
47054;BME280;32811;52.382;5.270;2023-02-10T13:43:32;103555.63;;;6.42;100.00
47054;BME280;32811;52.382;5.270;2023-02-10T13:46:21;103496.53;;;6.14;100.00
47054;BME280;32811;52.382;5.270;2023-02-10T13:49:27;103487.66;;;6.22;100.00
47054;BME280;32811;52.382;5.270;2023-02-10T13:52:14;103504.31;;;6.56;100.00
47054;BME280;32811;52.382;5.270;2023-02-10T13:58:28;103459.22;;;6.59;100.00
47054;BME280;32811;52.382;5.270;2023-02-10T14:01:40;103460.69;;;6.69;100.00
47054;BME280;32811;52.382;5.270;2023-02-10T14:15:30;103465.56;;;6.24;100.00
47054;BME280;32811;52.382;5.270;2023-02-10T14:18:23;103515.38;;;6.41;100.00
47054;BME280;32811;52.382;5.270;2023-02-10T14:20:56;103509.97;;;6.50;100.00
47054;BME280;32811;52.382;5.270;2023-02-10T14:23:27;103470.09;;;6.29;100.00
47054;BME280;32811;52.382;5.270;2023-02-10T14:25:58;103492.31;;;6.28;100.00
47054;BME280;32811;52.382;5.270;2023-02-10T14:28:33;103472.47;;;6.12;100.00
47054;BME280;32811;52.382;5.270;2023-02-10T14:31:25;103505.69;;;6.11;100.00
47054;BME280;32811;52.382;5.270;2023-02-10T14:33:58;103472.28;;;5.84;100.00
47054;BME280;32811;52.382;5.270;2023-02-10T14:36:29;103455.22;;;5.85;100.00
47054;BME280;32811;52.382;5.270;2023-02-10T14:39:00;103495.84;;;6.17;100.00
47054;BME280;32811;52.382;5.270;2023-02-10T14:41:30;103498.41;;;6.17;100.00
47054;BME280;32811;52.382;5.270;2023-02-10T14:43:58;103508.75;;;6.18;100.00
47054;BME280;32811;52.382;5.270;2023-02-10T14:46:28;103500.47;;;6.22;100.00
47054;BME280;32811;52.382;5.270;2023-02-10T14:49:02;103497.84;;;6.21;100.00
47054;BME280;32811;52.382;5.270;2023-02-10T14:51:30;103503.84;;;6.21;100.00
47054;BME280;32811;52.382;5.270;2023-02-10T14:54:16;103500.09;;;6.16;100.00
47054;BME280;32811;52.382;5.270;2023-02-10T14:57:10;103506.69;;;6.13;100.00
47054;BME280;32811;52.382;5.270;2023-02-10T14:59:38;103508.94;;;6.08;100.00
47054;BME280;32811;52.382;5.270;2023-02-10T15:02:15;103505.09;;;6.01;100.00
47054;BME280;32811;52.382;5.270;2023-02-10T15:04:44;103499.09;;;5.89;100.00
47054;BME280;32811;52.382;5.270;2023-02-10T15:07:39;103493.28;;;5.78;100.00
47054;BME280;32811;52.382;5.270;2023-02-10T15:17:46;103461.81;;;5.68;100.00
47054;BME280;32811;52.382;5.270;2023-02-10T15:25:36;103480.22;;;5.62;100.00
47054;BME280;32811;52.382;5.270;2023-02-10T15:31:00;103499.47;;;5.69;100.00
47054;BME280;32811;52.382;5.270;2023-02-10T15:33:31;103500.94;;;5.65;100.00
47054;BME280;32811;52.382;5.270;2023-02-10T15:38:45;103495.72;;;5.64;100.00
47054;BME280;32811;52.382;5.270;2023-02-10T15:44:27;103476.84;;;5.50;100.00
47054;BME280;32811;52.382;5.270;2023-02-10T15:49:39;103437.53;;;5.24;100.00
47054;BME280;32811;52.382;5.270;2023-02-10T15:52:20;103451.94;;;5.35;100.00
47054;BME280;32811;52.382;5.270;2023-02-10T15:54:51;103434.41;;;5.28;100.00
47054;BME280;32811;52.382;5.270;2023-02-10T15:57:20;103466.09;;;5.55;100.00
47054;BME280;32811;52.382;5.270;2023-02-10T15:59:49;103437.13;;;5.43;100.00
47054;BME280;32811;52.382;5.270;2023-02-10T16:02:17;103458.81;;;5.48;100.00
47054;BME280;32811;52.382;5.270;2023-02-10T16:04:45;103483.69;;;5.76;100.00
47054;BME280;32811;52.382;5.270;2023-02-10T16:07:21;103478.50;;;5.74;100.00
47054;BME280;32811;52.382;5.270;2023-02-10T16:09:50;103469.28;;;5.65;100.00
47054;BME280;32811;52.382;5.270;2023-02-10T16:12:18;103445.41;;;5.52;100.00